Flughafen Hamburg

Aus VATSIM Germany
Dies ist die bestätigte sowie die neueste Version dieser Seite.
Wechseln zu:Navigation, Suche
UnderCon icon.svg.pngDieser Artikel ist noch im Aufbau. Der Artikel kann daher unvollständig sein oder Fehler enthalten!


Hamburg Airport
ICAO / IATA EDDH / HAM
Koordinaten N53°37′49″  E009°59′18″
Höhe 16 m / 53 ft
Wetter EDDH 190420Z 17006KT 9999 -RA NSC 11/08 Q1018 NOSIG
Pisten
Platzfrequenzen
Nur für Flugsimulationszwecke!

Hamburg Airport


Informationen für Piloten und Lotsen
Pilotenbriefing

Standard Operating Procedures (SOP)

Letters of Agreement (LoAs)

Airport Charts